Time;durP1;ratioP1;P1;durP2;ratioP2;P2;SDS_P1;SDS_P2;PMS_P1;PMS_P2;Temp;Humidity;BMP_temperature;BMP_pressure;BME280_temperature;BME280_humidity;BME280_pressure;Samples;Min_cycle;Max_cycle;Signal;HPM_P1;HPM_P2
2023/05/02 00:00:14;;;;;;;2.45;1.50;;;;;;;13.73;59.96;99789.59;4320331;33;20158;-89
2023/05/02 00:02:40;;;;;;;4.95;1.90;;;;;;;13.77;59.96;99793.75;4308050;33;20745;-89
2023/05/02 00:05:06;;;;;;;5.60;1.87;;;;;;;13.83;59.96;99790.88;4320135;33;20096;-88
2023/05/02 00:07:31;;;;;;;5.35;1.85;;;;;;;13.96;59.97;99785.06;4308199;33;20104;-88
2023/05/02 00:09:57;;;;;;;3.37;1.67;;;;;;;13.99;59.97;99795.44;4320400;33;20411;-89
2023/05/02 00:12:22;;;;;;;3.25;1.73;;;;;;;14.22;59.98;99786.53;4320622;33;20091;-89
2023/05/02 00:14:48;;;;;;;4.85;1.70;;;;;;;14.05;59.97;99788.13;4320902;33;20092;-89
2023/05/02 00:17:18;;;;;;;6.93;1.98;;;;;;;13.98;59.96;99791.97;4320764;33;20130;-88
2023/05/02 00:19:43;;;;;;;4.65;2.00;;;;;;;14.05;59.97;99782.06;4320458;33;20496;-88
2023/05/02 00:22:09;;;;;;;3.90;1.65;;;;;;;14.18;59.98;99780.56;4332276;33;20134;-89
2023/05/02 00:24:35;;;;;;;4.40;1.95;;;;;;;14.23;59.98;99778.59;4320004;33;20152;-89
2023/05/02 00:27:00;;;;;;;3.28;1.62;;;;;;;14.28;59.99;99784.47;4320112;33;20397;-89
2023/05/02 00:29:26;;;;;;;4.03;1.87;;;;;;;14.04;59.97;99786.44;4320005;33;20151;-88
2023/05/02 00:31:51;;;;;;;4.97;2.00;;;;;;;14.16;59.97;99779.78;4319886;33;20192;-89
2023/05/02 00:34:17;;;;;;;3.40;1.75;;;;;;;14.18;59.98;99785.78;4333276;33;20105;-88
2023/05/02 00:36:42;;;;;;;5.68;1.58;;;;;;;14.17;59.99;99791.09;4331900;33;20167;-89
2023/05/02 00:39:08;;;;;;;3.75;1.50;;;;;;;14.15;59.97;99788.56;4319413;33;24537;-89
2023/05/02 00:41:33;;;;;;;4.37;1.70;;;;;;;14.09;59.98;99787.06;4319982;33;20381;-88
2023/05/02 00:43:59;;;;;;;4.45;1.60;;;;;;;13.94;59.96;99786.91;4319744;33;20123;-88
2023/05/02 00:46:25;;;;;;;3.83;2.17;;;;;;;13.83;59.96;99790.88;4333173;33;20442;-87
2023/05/02 00:48:50;;;;;;;4.30;1.75;;;;;;;13.94;59.96;99786.91;4319634;33;20111;-88
2023/05/02 00:51:16;;;;;;;5.70;1.98;;;;;;;14.01;59.96;99790.97;4319774;33;20139;-88
2023/05/02 00:53:41;;;;;;;5.25;1.40;;;;;;;13.98;59.97;99791.97;4319428;33;20107;-88
2023/05/02 00:56:07;;;;;;;3.12;1.30;;;;;;;13.84;59.96;99791.72;4319664;33;20391;-89
2023/05/02 00:58:33;;;;;;;3.53;1.55;;;;;;;14.19;59.98;99787.47;4319686;33;20390;-88
2023/05/02 01:01:23;;;;;;;1.87;1.20;;;;;;;13.99;59.97;99787.56;4319598;33;20083;-88
2023/05/02 01:04:07;;;;;;;5.10;1.40;;;;;;;13.95;59.97;99793.84;4333702;33;20158;-88
2023/05/02 01:06:45;;;;;;;2.10;1.25;;;;;;;13.96;59.97;99785.06;4333601;33;20803;-88
2023/05/02 01:09:27;;;;;;;4.20;1.67;;;;;;;13.98;59.97;99794.56;4321457;33;20104;-88
2023/05/02 01:12:38;;;;;;;2.53;1.35;;;;;;;13.94;59.96;99779.06;4322903;33;20117;-88
2023/05/02 01:15:05;;;;;;;2.42;1.23;;;;;;;14.13;59.97;99785.16;4333656;33;20141;-88
2023/05/02 01:17:31;;;;;;;3.33;1.40;;;;;;;14.02;59.97;99790.03;4321395;33;20129;-89
2023/05/02 01:20:05;;;;;;;5.00;1.77;;;;;;;14.05;59.97;99782.06;4321486;33;20142;-88
2023/05/02 01:22:30;;;;;;;2.03;1.17;;;;;;;14.05;59.97;99779.44;4321456;33;20091;-89
2023/05/02 01:25:17;;;;;;;7.25;1.50;;;;;;;14.11;59.97;99784.38;4321386;33;20428;-89
2023/05/02 01:27:57;;;;;;;1.98;1.25;;;;;;;14.12;59.98;99783.47;4333518;33;20119;-88
2023/05/02 01:30:23;;;;;;;2.90;1.23;;;;;;;14.12;59.97;99784.31;4321601;33;20134;-88
2023/05/02 01:32:49;;;;;;;2.70;1.10;;;;;;;14.22;59.97;99778.66;4321355;33;20088;-89
2023/05/02 01:35:15;;;;;;;2.55;1.25;;;;;;;14.20;59.98;99776.12;4321558;33;20138;-90
2023/05/02 01:37:40;;;;;;;1.70;0.90;;;;;;;14.29;59.98;99782.69;4309358;33;20107;-88
2023/05/02 01:40:07;;;;;;;2.78;1.02;;;;;;;14.30;59.98;99772.16;4321592;33;20489;-88
2023/05/02 01:42:32;;;;;;;4.75;1.48;;;;;;;14.24;59.99;99772.44;4321207;33;20111;-87
2023/05/02 01:44:57;;;;;;;4.87;1.77;;;;;;;14.31;59.98;99775.59;4321221;33;20096;-88
2023/05/02 01:47:23;;;;;;;2.25;0.95;;;;;;;14.27;59.98;99774.06;4320998;33;20107;-88
2023/05/02 01:49:48;;;;;;;3.00;1.10;;;;;;;14.31;59.98;99773.84;4321305;33;20144;-88
2023/05/02 01:52:14;;;;;;;2.22;1.33;;;;;;;14.33;59.99;99776.38;4334059;33;29202;-88
2023/05/02 01:54:40;;;;;;;3.40;1.40;;;;;;;14.30;59.97;99769.53;4321225;33;20421;-88
2023/05/02 01:57:06;;;;;;;2.78;1.05;;;;;;;14.32;59.99;99766.84;4333293;33;20365;-89
2023/05/02 01:59:32;;;;;;;3.10;1.25;;;;;;;14.39;59.99;99766.47;4321225;33;20092;-89
2023/05/02 02:01:57;;;;;;;2.45;1.42;;;;;;;14.32;59.99;99766.84;4321317;33;20084;-89
2023/05/02 02:04:23;;;;;;;2.67;1.10;;;;;;;14.40;59.99;99764.69;4321007;33;20118;-90
2023/05/02 02:06:53;;;;;;;3.65;1.33;;;;;;;14.60;60.00;99763.78;4321155;33;20163;-89
2023/05/02 02:09:19;;;;;;;2.08;1.20;;;;;;;14.49;60.00;99761.69;4321126;33;20442;-90
2023/05/02 02:12:33;;;;;;;3.62;1.25;;;;;;;14.51;59.99;99756.38;4333136;33;20921;-90
2023/05/02 02:15:02;;;;;;;2.10;1.10;;;;;;;14.48;60.00;99752.13;4314367;33;20110;-90
2023/05/02 02:17:40;;;;;;;2.85;1.37;;;;;;;14.38;59.98;99746.44;4320874;33;20134;-91
2023/05/02 02:20:08;;;;;;;1.77;0.98;;;;;;;14.49;59.99;99751.22;4321029;33;20096;-89
2023/05/02 02:22:36;;;;;;;3.37;1.27;;;;;;;14.52;59.99;99753.69;4321031;33;20448;-89
2023/05/02 02:25:03;;;;;;;5.65;1.25;;;;;;;14.44;59.99;99747.97;4320993;33;20075;-90
2023/05/02 02:27:28;;;;;;;3.83;1.42;;;;;;;14.36;59.99;99742.19;4320948;33;20154;-89
2023/05/02 02:29:53;;;;;;;3.28;1.37;;;;;;;14.37;59.98;99754.38;4320360;33;27558;-90
2023/05/02 02:32:19;;;;;;;4.93;1.17;;;;;;;14.29;59.98;99748.66;4320694;33;20183;-89
2023/05/02 02:34:44;;;;;;;3.10;1.35;;;;;;;14.30;59.98;99745.97;4332954;33;20151;-90
2023/05/02 02:37:20;;;;;;;2.80;1.17;;;;;;;14.26;59.99;99751.41;4333117;33;20462;-90
2023/05/02 02:39:57;;;;;;;2.75;1.50;;;;;;;14.19;59.98;99745.59;4321116;33;20123;-91
2023/05/02 02:42:39;;;;;;;3.83;1.52;;;;;;;14.32;59.99;99745.88;4320995;33;20080;-91
2023/05/02 02:45:14;;;;;;;1.73;1.20;;;;;;;14.25;59.99;99747.09;4321650;33;20150;-91
2023/05/02 02:47:43;;;;;;;3.78;1.48;;;;;;;14.21;59.98;99750.78;4332967;33;20156;-90
2023/05/02 02:50:29;;;;;;;4.32;1.70;;;;;;;14.28;59.98;99749.56;4321091;33;20524;-89
2023/05/02 02:52:59;;;;;;;4.82;1.65;;;;;;;14.18;59.98;99748.28;4321182;33;20088;-88
2023/05/02 02:55:42;;;;;;;3.62;1.12;;;;;;;14.17;59.97;99752.69;4321256;33;20121;-89
2023/05/02 02:58:20;;;;;;;2.90;1.45;;;;;;;14.14;59.97;99747.59;4321128;33;20138;-90
2023/05/02 03:00:45;;;;;;;7.43;1.60;;;;;;;14.14;59.98;99752.81;4334640;33;20146;-89
2023/05/02 03:03:12;;;;;;;3.90;1.62;;;;;;;14.08;59.97;99759.19;4321011;33;20111;-89
2023/05/02 03:05:37;;;;;;;5.60;1.52;;;;;;;14.02;59.97;99751.63;4308527;33;20118;-89
2023/05/02 03:08:02;;;;;;;4.57;1.60;;;;;;;13.99;59.97;99754.41;4320569;33;20143;-89
2023/05/02 03:10:28;;;;;;;5.12;1.40;;;;;;;13.96;59.97;99762.41;4320749;33;20103;-88
2023/05/02 03:12:54;;;;;;;3.08;1.52;;;;;;;13.98;59.96;99762.31;4332473;33;27683;-90
2023/05/02 03:15:59;;;;;;;4.07;1.23;;;;;;;13.93;59.96;99759.03;4320882;33;20088;-89
2023/05/02 03:18:25;;;;;;;3.17;1.27;;;;;;;14.05;59.97;99761.12;4334127;33;20155;-89
2023/05/02 03:20:50;;;;;;;2.85;1.55;;;;;;;13.95;59.97;99767.66;4320845;33;20092;-89
2023/05/02 03:23:15;;;;;;;3.08;1.58;;;;;;;13.98;59.97;99770.19;4332382;33;22189;-88
2023/05/02 03:25:41;;;;;;;4.12;1.80;;;;;;;13.91;59.96;99761.72;4320754;33;20084;-88
2023/05/02 03:28:07;;;;;;;5.95;1.40;;;;;;;13.92;59.96;99765.19;4320697;33;20147;-90
2023/05/02 03:30:32;;;;;;;7.37;2.12;;;;;;;13.87;59.96;99762.78;4320440;33;20227;-90
2023/05/02 03:32:59;;;;;;;3.28;1.80;;;;;;;13.81;59.96;99769.16;4320566;33;20151;-89
2023/05/02 03:35:24;;;;;;;2.60;1.42;;;;;;;13.99;59.96;99770.09;4320403;33;20179;-89
2023/05/02 03:37:50;;;;;;;3.30;1.50;;;;;;;13.99;59.96;99764.87;4320567;33;20103;-88
2023/05/02 03:40:15;;;;;;;2.03;1.50;;;;;;;14.00;59.97;99773.56;4332301;33;20553;-89
2023/05/02 03:42:41;;;;;;;4.00;1.80;;;;;;;13.96;59.97;99772.87;4320414;33;20099;-89
2023/05/02 03:45:06;;;;;;;4.03;1.83;;;;;;;13.88;59.96;99776.72;4320540;33;20124;-90
2023/05/02 03:47:32;;;;;;;2.67;1.62;;;;;;;13.82;59.96;99776.09;4320169;33;20095;-90
2023/05/02 03:49:58;;;;;;;3.37;2.08;;;;;;;13.93;59.96;99769.50;4320477;33;20142;-91
2023/05/02 03:52:23;;;;;;;5.65;1.60;;;;;;;13.94;59.97;99774.66;4320310;33;20108;-88
2023/05/02 03:54:49;;;;;;;6.82;2.37;;;;;;;14.03;59.97;99769.03;4332595;33;20130;-88
2023/05/02 03:57:14;;;;;;;7.32;1.92;;;;;;;14.05;59.97;99766.34;4333181;33;27401;-89
2023/05/02 03:59:44;;;;;;;4.62;1.75;;;;;;;13.96;59.97;99771.97;4320321;33;20187;-88
2023/05/02 04:02:10;;;;;;;;;;;;;;;13.94;59.97;99777.28;4333786;33;20088;-87
2023/05/02 04:04:35;;;;;;;4.82;1.42;;;;;;;14.03;59.97;99782.13;4320381;33;19971;-88
2023/05/02 04:07:01;;;;;;;3.28;1.75;;;;;;;14.27;59.99;99774.06;4320172;33;20533;-87
2023/05/02 04:09:26;;;;;;;4.62;1.75;;;;;;;14.21;59.98;99782.22;4333740;33;20099;-87
2023/05/02 04:11:52;;;;;;;4.28;1.70;;;;;;;14.24;59.98;99782.06;4320216;33;20138;-88
2023/05/02 04:14:17;;;;;;;2.87;1.80;;;;;;;14.26;59.99;99786.31;4333550;33;20359;-88
2023/05/02 04:16:49;;;;;;;2.42;1.90;;;;;;;14.71;60.01;99774.59;4320354;33;20437;-88
2023/05/02 04:19:15;;;;;;;6.07;2.10;;;;;;;14.45;59.99;99785.47;4320446;33;20107;-88
2023/05/02 04:21:41;;;;;;;4.37;2.40;;;;;;;14.49;60.00;99787.03;4320428;33;20129;-87
2023/05/02 04:24:07;;;;;;;3.42;2.08;;;;;;;14.74;60.01;99782.31;4320559;33;20091;-89
2023/05/02 04:26:33;;;;;;;5.80;2.25;;;;;;;14.73;60.01;99784.09;4320139;33;20133;-88
2023/05/02 04:28:58;;;;;;;3.60;2.05;;;;;;;14.84;60.01;99790.56;4331961;33;20151;-89
2023/05/02 04:31:23;;;;;;;5.47;2.08;;;;;;;14.94;60.02;99791.81;4331995;33;20095;-89
2023/05/02 04:33:49;;;;;;;4.87;1.80;;;;;;;15.16;60.04;99789.00;4331369;33;35744;-89
2023/05/02 04:36:15;;;;;;;3.62;2.03;;;;;;;15.43;60.05;99789.38;4319866;33;20155;-88
2023/05/02 04:38:40;;;;;;;6.97;1.83;;;;;;;15.57;60.05;99786.84;4332123;33;20432;-88
2023/05/02 04:41:06;;;;;;;2.92;1.90;;;;;;;15.90;60.06;99785.13;4320558;33;27947;-88
2023/05/02 04:43:31;;;;;;;4.65;1.73;;;;;;;16.00;60.07;99784.62;4334604;33;20103;-88
2023/05/02 04:45:57;;;;;;;3.35;2.03;;;;;;;16.24;60.09;99786.78;4318866;33;25748;-88
2023/05/02 04:48:24;;;;;;;5.53;1.98;;;;;;;16.52;60.11;99793.13;4332079;33;20149;-88
2023/05/02 04:50:49;;;;;;;5.10;2.17;;;;;;;16.75;60.11;99786.63;4330915;33;20107;-88
2023/05/02 04:53:15;;;;;;;5.25;2.55;;;;;;;16.82;60.12;99795.87;4330714;33;20151;-89
2023/05/02 04:55:41;;;;;;;4.20;2.22;;;;;;;17.02;60.13;99797.34;4330776;33;20750;-88
2023/05/02 04:58:07;;;;;;;4.87;2.47;;;;;;;17.20;60.13;99798.91;4318724;33;20111;-88
2023/05/02 05:00:33;;;;;;;9.95;2.62;;;;;;;17.28;60.14;99799.31;4330680;33;20137;-87
2023/05/02 05:02:58;;;;;;;4.80;2.72;;;;;;;17.39;60.15;99796.91;4318729;33;20183;-88
2023/05/02 05:05:23;;;;;;;6.10;2.97;;;;;;;17.68;60.16;99796.97;4306151;33;20161;-88
2023/05/02 05:07:51;;;;;;;7.70;2.83;;;;;;;17.78;60.17;99795.47;4318525;33;20096;-88
2023/05/02 05:10:16;;;;;;;8.73;2.55;;;;;;;17.98;60.18;99788.97;4330664;33;20126;-88
2023/05/02 05:12:42;;;;;;;6.43;2.72;;;;;;;18.02;60.19;99790.50;4332009;33;20382;-89
2023/05/02 05:15:08;;;;;;;13.80;2.70;;;;;;;18.26;60.20;99798.66;4317924;33;20709;-88
2023/05/02 05:17:33;;;;;;;4.30;2.70;;;;;;;18.36;60.20;99794.50;4318354;33;20123;-88
2023/05/02 05:19:59;;;;;;;5.53;2.72;;;;;;;18.44;60.21;99786.94;4318565;33;20111;-88
2023/05/02 05:22:24;;;;;;;6.25;2.55;;;;;;;18.66;60.21;99787.28;4321295;33;20142;-88
2023/05/02 05:24:51;;;;;;;7.10;2.25;;;;;;;18.71;60.22;99797.56;4334487;33;20143;-88
2023/05/02 05:27:17;;;;;;;6.55;2.33;;;;;;;18.77;60.23;99791.03;4321144;33;20147;-88
2023/05/02 05:29:42;;;;;;;3.62;1.95;;;;;;;18.92;60.22;99797.91;4321406;33;20139;-89
2023/05/02 05:32:07;;;;;;;4.03;2.22;;;;;;;18.89;60.23;99793.69;4333914;33;31271;-88
2023/05/02 05:34:33;;;;;;;5.68;2.55;;;;;;;19.02;60.24;99801.66;4333230;33;20152;-89
2023/05/02 05:36:59;;;;;;;3.85;2.10;;;;;;;19.13;60.24;99799.16;4309100;33;20175;-89
2023/05/02 05:39:24;;;;;;;6.78;2.15;;;;;;;19.25;60.25;99795.69;4321566;33;20167;-89
2023/05/02 05:41:50;;;;;;;5.78;1.90;;;;;;;19.36;60.25;99808.16;4334082;33;20111;-88
2023/05/02 05:44:15;;;;;;;6.10;2.22;;;;;;;19.41;60.26;99810.53;4337738;33;20189;-88
2023/05/02 05:46:41;;;;;;;5.45;2.60;;;;;;;19.58;60.26;99810.22;4336384;33;20135;-90
2023/05/02 05:49:06;;;;;;;6.07;2.70;;;;;;;19.63;60.27;99810.75;4333036;33;20145;-89
2023/05/02 05:51:32;;;;;;;4.25;2.22;;;;;;;19.58;60.27;99821.62;4320461;33;20138;-89
2023/05/02 05:53:57;;;;;;;4.62;2.78;;;;;;;19.76;60.27;99805.50;4334296;33;20148;-89
2023/05/02 05:56:23;;;;;;;3.60;2.20;;;;;;;19.77;60.28;99818.59;4321124;33;20132;-89
2023/05/02 05:58:48;;;;;;;4.55;2.17;;;;;;;20.00;60.28;99816.16;4320930;33;20152;-88
2023/05/02 06:01:14;;;;;;;3.45;2.47;;;;;;;20.01;60.29;99817.84;4333335;33;20143;-88
2023/05/02 06:03:39;;;;;;;7.70;2.78;;;;;;;20.16;60.30;99814.12;4308938;33;20112;-88
2023/05/02 06:06:05;;;;;;;3.92;2.37;;;;;;;19.95;60.28;99819.13;4320938;33;20378;-87
2023/05/02 06:08:30;;;;;;;6.80;2.92;;;;;;;20.20;60.30;99815.59;4308578;33;20119;-88
2023/05/02 06:10:55;;;;;;;6.45;2.55;;;;;;;20.14;60.29;99818.69;4320754;33;20088;-86
2023/05/02 06:13:21;;;;;;;6.30;2.62;;;;;;;20.33;60.31;99813.75;4333752;33;20103;-86
2023/05/02 06:15:46;;;;;;;5.70;2.90;;;;;;;20.45;60.31;99822.66;4334065;33;20129;-87
2023/05/02 06:18:12;;;;;;;3.87;2.70;;;;;;;20.66;60.32;99810.53;4333165;33;20407;-87
2023/05/02 06:20:38;;;;;;;5.00;2.62;;;;;;;20.65;60.32;99819.44;4321042;33;20433;-88
2023/05/02 06:23:03;;;;;;;7.93;2.62;;;;;;;20.77;60.33;99800.00;4333046;33;20147;-88
2023/05/02 06:25:28;;;;;;;8.13;2.72;;;;;;;20.89;60.33;99816.81;4320819;33;20146;-88
2023/05/02 06:27:54;;;;;;;3.55;2.60;;;;;;;20.95;60.34;99810.22;4333137;33;20107;-89
2023/05/02 06:30:20;;;;;;;3.83;2.50;;;;;;;20.97;60.34;99814.41;4320961;33;20163;-87
2023/05/02 06:32:45;;;;;;;3.25;2.15;;;;;;;21.09;60.35;99810.87;4320040;33;20437;-88
2023/05/02 06:35:11;;;;;;;4.35;2.15;;;;;;;20.94;60.34;99819.94;4333681;33;20103;-88
2023/05/02 06:37:36;;;;;;;8.20;2.90;;;;;;;20.91;60.33;99819.34;4319942;33;20122;-88
2023/05/02 06:40:02;;;;;;;4.87;2.60;;;;;;;20.97;60.34;99819.72;4319813;33;30145;-85
2023/05/02 06:42:28;;;;;;;3.20;2.35;;;;;;;21.02;60.34;99820.22;4320902;33;20155;-87
2023/05/02 06:44:53;;;;;;;6.62;2.72;;;;;;;21.30;60.35;99826.16;4321087;33;20126;-89
2023/05/02 06:47:19;;;;;;;8.27;2.80;;;;;;;21.43;60.37;99816.31;4320387;33;20083;-87
2023/05/02 06:49:44;;;;;;;7.40;3.05;;;;;;;21.44;60.36;99823.28;4333849;33;20109;-87
2023/05/02 06:52:10;;;;;;;4.70;2.53;;;;;;;21.62;60.38;99821.06;4334068;33;20115;-88
2023/05/02 06:54:35;;;;;;;6.22;2.45;;;;;;;21.53;60.37;99821.75;4320167;33;20135;-87
2023/05/02 06:57:01;;;;;;;4.28;2.33;;;;;;;21.89;60.39;99815.44;4320449;33;20151;-88
2023/05/02 06:59:27;;;;;;;6.50;2.72;;;;;;;21.86;60.39;99813.88;4320679;33;20465;-87
2023/05/02 07:01:52;;;;;;;3.17;2.17;;;;;;;22.01;60.40;99817.13;4333300;33;20151;-86
2023/05/02 07:04:17;;;;;;;4.93;2.40;;;;;;;22.10;60.41;99818.25;4319892;33;20127;-88
2023/05/02 07:06:43;;;;;;;4.85;2.53;;;;;;;22.19;60.41;99814.84;4321860;33;20405;-88
2023/05/02 07:09:08;;;;;;;3.50;2.50;;;;;;;22.09;60.39;99811.25;4321445;33;27931;-88
2023/05/02 07:11:33;;;;;;;7.32;2.60;;;;;;;22.28;60.41;99814.16;4332310;33;22422;-88
2023/05/02 07:13:59;;;;;;;5.95;2.78;;;;;;;22.56;60.43;99810.97;4332670;33;20442;-88
2023/05/02 07:16:24;;;;;;;3.28;2.53;;;;;;;22.70;60.43;99809.84;4320288;33;20477;-88
2023/05/02 07:18:50;;;;;;;3.03;2.40;;;;;;;22.83;60.44;99807.91;4334201;33;20118;-87
2023/05/02 07:21:17;;;;;;;5.25;2.45;;;;;;;22.88;60.44;99811.03;4333068;33;31299;-88
2023/05/02 07:23:42;;;;;;;3.85;2.33;;;;;;;23.07;60.44;99810.34;4320699;33;20187;-88
2023/05/02 07:26:07;;;;;;;3.40;2.33;;;;;;;23.30;60.46;99810.25;4331948;33;33668;-88
2023/05/02 07:28:33;;;;;;;5.65;2.22;;;;;;;23.49;60.48;99813.06;4333638;33;20080;-88
2023/05/02 07:30:59;;;;;;;6.70;2.60;;;;;;;23.53;60.48;99807.34;4334015;33;20163;-88
2023/05/02 07:33:24;;;;;;;4.37;2.20;;;;;;;23.49;60.48;99807.75;4334087;33;20139;-88
2023/05/02 07:35:50;;;;;;;5.32;2.50;;;;;;;23.57;60.49;99807.97;4320625;33;20111;-88
2023/05/02 07:38:15;;;;;;;4.28;2.72;;;;;;;23.74;60.49;99814.50;4332755;33;20068;-88
2023/05/02 07:40:41;;;;;;;7.00;2.92;;;;;;;23.86;60.49;99813.44;4319870;33;28961;-88
2023/05/02 07:43:06;;;;;;;6.93;2.47;;;;;;;23.94;60.49;99813.62;4334030;33;20151;-88
2023/05/02 07:45:32;;;;;;;4.78;2.42;;;;;;;23.81;60.50;99820.97;4320100;33;20175;-88
2023/05/02 07:47:58;;;;;;;5.65;2.10;;;;;;;23.92;60.50;99818.25;4332601;33;20092;-88
2023/05/02 07:50:23;;;;;;;3.70;2.30;;;;;;;23.92;60.50;99812.09;4320472;33;20109;-88
2023/05/02 07:52:48;;;;;;;6.00;3.00;;;;;;;23.82;60.50;99807.53;4308372;33;20462;-88
2023/05/02 07:55:14;;;;;;;6.32;2.08;;;;;;;23.81;60.49;99815.66;4320241;33;20155;-89
2023/05/02 07:57:39;;;;;;;4.37;2.35;;;;;;;23.89;60.50;99819.31;4332198;33;25073;-88
2023/05/02 08:00:08;;;;;;;7.78;2.80;;;;;;;23.76;60.49;99812.53;4320327;33;20161;-88
2023/05/02 08:02:35;;;;;;;7.05;2.45;;;;;;;23.75;60.49;99817.03;4332656;33;20134;-89
2023/05/02 08:05:01;;;;;;;5.53;2.40;;;;;;;23.65;60.49;99809.94;4320248;33;20091;-88
2023/05/02 08:07:27;;;;;;;5.97;2.83;;;;;;;23.54;60.47;99811.69;4320459;33;20092;-88
2023/05/02 08:09:52;;;;;;;4.00;2.47;;;;;;;23.49;60.48;99819.22;4320154;33;20467;-88
2023/05/02 08:12:17;;;;;;;3.65;2.00;;;;;;;23.46;60.47;99816.81;4332057;33;24284;-88
2023/05/02 08:14:43;;;;;;;3.42;2.20;;;;;;;23.52;60.48;99816.28;4319060;33;22039;-88
2023/05/02 08:17:08;;;;;;;3.33;2.22;;;;;;;23.56;60.47;99812.44;4333333;33;21536;-88
2023/05/02 08:19:34;;;;;;;4.47;2.55;;;;;;;23.82;60.50;99822.66;4320273;33;20112;-88
2023/05/02 08:21:59;;;;;;;3.72;2.10;;;;;;;24.01;60.50;99824.56;4320229;33;20135;-88
2023/05/02 08:24:25;;;;;;;6.10;2.37;;;;;;;24.14;60.51;99819.88;4319979;33;20143;-88
2023/05/02 08:26:50;;;;;;;6.87;1.80;;;;;;;24.34;60.52;99816.31;4320295;33;20112;-88
2023/05/02 08:29:16;;;;;;;4.72;1.75;;;;;;;24.55;60.53;99815.41;4321834;33;20167;-88
2023/05/02 08:31:41;;;;;;;6.07;2.25;;;;;;;24.65;60.53;99819.78;4320386;33;30592;-88
2023/05/02 08:34:07;;;;;;;9.50;2.87;;;;;;;24.75;60.54;99817.97;4333175;33;20396;-88
2023/05/02 08:36:32;;;;;;;4.70;2.45;;;;;;;24.94;60.55;99813.66;4320016;33;20119;-88
2023/05/02 08:38:57;;;;;;;4.18;1.83;;;;;;;24.99;60.55;99814.09;4307332;33;20301;-88
2023/05/02 08:41:23;;;;;;;8.38;2.10;;;;;;;25.00;60.56;99807.78;4332967;33;20119;-88
2023/05/02 08:43:48;;;;;;;5.25;2.17;;;;;;;25.24;60.56;99797.56;4332496;33;34707;-88
2023/05/02 08:46:14;;;;;;;3.33;2.40;;;;;;;25.52;60.57;99801.16;4319921;33;20118;-88
2023/05/02 08:48:42;;;;;;;3.08;2.12;;;;;;;25.64;60.58;99799.19;4319727;33;20132;-88
2023/05/02 08:51:08;;;;;;;4.22;2.03;;;;;;;25.68;60.58;99792.59;4319602;33;20554;-88
2023/05/02 08:53:34;;;;;;;5.20;2.95;;;;;;;25.90;60.59;99788.75;4319750;33;20099;-88
2023/05/02 08:56:00;;;;;;;5.32;2.37;;;;;;;25.81;60.60;99800.31;4319840;33;20452;-88
2023/05/02 08:58:25;;;;;;;6.12;2.78;;;;;;;25.69;60.59;99787.13;4331057;33;34271;-88
2023/05/02 09:00:50;;;;;;;4.50;2.90;;;;;;;25.78;60.59;99795.25;4319709;33;20151;-88
2023/05/02 09:03:28;;;;;;;4.15;2.40;;;;;;;25.64;60.58;99797.38;4319682;33;20108;-88
2023/05/02 09:06:08;;;;;;;4.95;2.67;;;;;;;25.47;60.58;99791.91;4319563;33;20110;-88
2023/05/02 09:08:34;;;;;;;6.10;2.47;;;;;;;25.61;60.59;99791.47;4319546;33;20468;-88
2023/05/02 09:11:03;;;;;;;6.53;2.67;;;;;;;25.86;60.60;99790.03;4319700;33;20169;-88
2023/05/02 09:13:42;;;;;;;5.60;2.22;;;;;;;25.95;60.60;99782.00;4319472;33;20095;-88
2023/05/02 09:16:24;;;;;;;4.40;2.40;;;;;;;26.31;60.63;99782.97;4319428;33;20115;-88
2023/05/02 09:18:51;;;;;;;3.12;2.60;;;;;;;26.62;60.64;99770.13;4319386;33;20115;-88
2023/05/02 09:21:17;;;;;;;4.60;2.35;;;;;;;26.75;60.64;99774.28;4332842;33;20457;-88
2023/05/02 09:23:44;;;;;;;4.22;1.95;;;;;;;26.48;60.63;99780.47;4332553;33;20092;-88
2023/05/02 09:26:16;;;;;;;4.53;1.95;;;;;;;26.34;60.62;99779.19;4308719;33;20130;-88
2023/05/02 09:28:42;;;;;;;5.80;2.17;;;;;;;26.49;60.63;99779.50;4335000;33;20465;-88
2023/05/02 09:31:13;;;;;;;4.32;1.83;;;;;;;26.53;60.62;99778.22;4321347;33;20116;-88
2023/05/02 09:33:39;;;;;;;3.65;2.00;;;;;;;26.71;60.65;99772.87;4321335;33;20408;-88
2023/05/02 09:36:06;;;;;;;4.35;2.08;;;;;;;26.90;60.65;99778.09;4321380;33;20096;-88
2023/05/02 09:38:31;;;;;;;3.92;1.90;;;;;;;26.96;60.66;99769.44;4334892;33;20126;-88
2023/05/02 09:40:57;;;;;;;4.45;1.87;;;;;;;27.20;60.67;99779.53;4334814;33;20103;-88
2023/05/02 09:43:22;;;;;;;10.35;2.05;;;;;;;26.99;60.66;99784.38;4333705;33;20095;-87
2023/05/02 09:46:01;;;;;;;5.05;1.75;;;;;;;26.97;60.66;99772.97;4333557;33;20083;-88
2023/05/02 09:48:27;;;;;;;3.33;1.70;;;;;;;27.24;60.67;99777.44;4335072;33;20441;-88
2023/05/02 09:50:53;;;;;;;3.10;2.28;;;;;;;27.16;60.66;99776.34;4321838;33;20128;-88
2023/05/02 09:53:18;;;;;;;6.43;1.75;;;;;;;27.24;60.66;99766.72;4322789;33;20096;-88
2023/05/02 09:55:44;;;;;;;4.78;2.30;;;;;;;27.12;60.67;99772.31;4320488;33;33474;-88
2023/05/02 09:58:20;;;;;;;6.55;1.92;;;;;;;27.18;60.67;99762.81;4320484;33;32068;-89
2023/05/02 10:00:46;;;;;;;3.70;1.50;;;;;;;27.20;60.67;99748.31;4334747;33;20108;-88
2023/05/02 10:03:16;;;;;;;2.90;1.58;;;;;;;27.02;60.65;99776.06;4334696;33;20100;-88
2023/05/02 10:05:43;;;;;;;6.00;1.80;;;;;;;27.21;60.67;99776.75;4334508;33;20099;-88
2023/05/02 10:08:09;;;;;;;5.22;1.90;;;;;;;27.48;60.68;99772.25;4321156;33;20465;-89
2023/05/02 10:10:39;;;;;;;3.78;1.40;;;;;;;27.68;60.69;99760.38;4321193;33;20542;-88
2023/05/02 10:13:04;;;;;;;3.95;1.87;;;;;;;27.76;60.70;99768.44;4308958;33;20100;-88
2023/05/02 10:15:31;;;;;;;3.00;1.67;;;;;;;27.69;60.69;99763.91;4321148;33;20139;-88
2023/05/02 10:17:57;;;;;;;1.98;1.60;;;;;;;27.82;60.70;99766.97;4321265;33;20434;-87
2023/05/02 10:20:25;;;;;;;3.12;1.73;;;;;;;28.10;60.71;99756.87;4321079;33;20099;-88
2023/05/02 10:22:51;;;;;;;7.72;1.77;;;;;;;27.85;60.70;99760.47;4321088;33;20092;-88
2023/05/02 10:25:16;;;;;;;5.30;1.80;;;;;;;27.87;60.70;99763.81;4308007;33;35009;-88
2023/05/02 10:27:41;;;;;;;4.60;1.85;;;;;;;27.85;60.70;99761.28;4321096;33;20474;-88
2023/05/02 10:30:07;;;;;;;3.85;1.73;;;;;;;27.60;60.69;99768.31;4320684;33;20148;-88
2023/05/02 10:32:33;;;;;;;5.80;2.00;;;;;;;28.03;60.71;99761.22;4334454;33;20087;-89
2023/05/02 10:35:05;;;;;;;4.12;1.98;;;;;;;28.18;60.72;99756.94;4334412;33;20147;-88
2023/05/02 10:37:32;;;;;;;11.45;2.20;;;;;;;28.35;60.72;99758.69;4320418;33;20513;-89
2023/05/02 10:39:57;;;;;;;3.72;2.10;;;;;;;28.45;60.74;99755.03;4321097;33;20112;-88
2023/05/02 10:42:23;;;;;;;6.57;1.70;;;;;;;28.26;60.72;99765.03;4308283;33;21566;-88
2023/05/02 10:44:49;;;;;;;3.90;2.83;;;;;;;28.14;60.72;99768.94;4320898;33;20120;-88
2023/05/02 10:47:21;;;;;;;2.78;1.62;;;;;;;27.94;60.70;99757.69;4307298;33;20115;-88
2023/05/02 10:49:55;;;;;;;2.45;1.92;;;;;;;27.99;60.71;99755.34;4320910;33;20111;-88
2023/05/02 10:52:24;;;;;;;2.22;1.95;;;;;;;27.93;60.70;99766.72;4320754;33;20134;-88
2023/05/02 10:54:50;;;;;;;2.85;1.73;;;;;;;28.17;60.72;99759.78;4320980;33;20092;-88
2023/05/02 10:57:15;;;;;;;5.70;1.95;;;;;;;28.50;60.73;99755.38;4334311;33;20147;-89
2023/05/02 10:59:41;;;;;;;4.40;1.85;;;;;;;28.59;60.73;99752.56;4320806;33;20123;-89
2023/05/02 11:02:22;;;;;;;5.12;2.20;;;;;;;28.64;60.74;99754.75;4320788;33;20095;-88
2023/05/02 11:05:06;;;;;;;3.60;2.03;;;;;;;28.66;60.74;99760.78;4334168;33;20076;-86
2023/05/02 11:07:35;;;;;;;9.88;2.33;;;;;;;28.35;60.73;99757.84;4320979;33;20119;-85
2023/05/02 11:10:16;;;;;;;2.83;1.77;;;;;;;28.40;60.73;99751.03;4321082;33;20509;-86
2023/05/02 11:12:43;;;;;;;6.87;2.20;;;;;;;28.37;60.73;99745.97;4334543;33;20143;-86
2023/05/02 11:15:09;;;;;;;2.87;1.90;;;;;;;28.32;60.72;99740.28;4335873;33;20063;-85
2023/05/02 11:18:01;;;;;;;3.87;2.10;;;;;;;28.36;60.72;99736.25;4320971;33;20124;-86
2023/05/02 11:20:26;;;;;;;4.25;2.15;;;;;;;28.34;60.72;99738.25;4320957;33;20111;-85
2023/05/02 11:22:52;;;;;;;8.93;2.53;;;;;;;28.13;60.73;99748.53;4320728;33;20423;-86
2023/05/02 11:25:30;;;;;;;4.43;2.12;;;;;;;28.18;60.72;99742.72;4333992;33;20087;-85
2023/05/02 11:27:56;;;;;;;6.95;2.30;;;;;;;28.16;60.72;99740.22;4320667;33;20134;-88
2023/05/02 11:30:51;;;;;;;5.87;1.98;;;;;;;28.07;60.72;99725.09;4332926;33;20404;-88
2023/05/02 11:33:17;;;;;;;3.78;1.90;;;;;;;28.34;60.73;99732.06;4308070;33;20092;-88
2023/05/02 11:35:42;;;;;;;4.85;1.90;;;;;;;28.39;60.73;99738.62;4320919;33;20159;-88